Kingsland, Texas
Current Conditions -  °F | °C
As of 5:35 PM on Thursday 18 Dec 2014 (Local Time) from KDZB Reporting Station
Scattered Clouds Scattered Clouds  
Wind Chill: 58°   Ceiling: Unl
Heat Index: 58°   Visibility: 10mi
Dew Point: 55°   Wind: 5mph
Humidity: 90%   Direction: 140°SE
Pressure: 30.05"   Gusts: NA
Location:  30.66°N, 98.44°W
Report Text: KDZB 182335Z AUTO 14004KT 10SM SCT065 14/13 A3005 RMK AO2 LTG DSNT W T01430127
Loading
Personal Weather Stations






























Interactive Weather Map New forecast layout! Learn more

10-Day Weather Forecast

Advertisements
Track Severe Weather on mobile